Impacts TAF Board
For situational awareness. Not to be used for flight planning purposes.
IDs:

KPIT - Pittsburgh Intl, PA, US

Issued at 0855 UTC 10 Dec 2022
Updated at 0906 UTC 10 Dec 2022
Potential Impact None Slight Moderate High
Time<<10/22Z 10/23Z 11/00Z 11/01Z 11/02Z 11/03Z 11/04Z 11/05Z 11/06Z 11/07Z 11/08Z 11/09Z 11/10Z>>
Type PRVL PRVL PRVL PRVL PRVL PRVL PRVL PRVL PRVL PRVL PRVL PRVL PRVL
VIS >6 >6 >6 >6 >6 >6 >6 >6 >6 >6 >6 >6 6
CIG 25 25 25 25 25 25 25 25 15 15 15 15 8
Cover OVC OVC OVC OVC OVC OVC OVC OVC OVC OVC OVC OVC OVC
FltCat MVFR MVFR MVFR MVFR MVFR MVFR MVFR MVFR MVFR MVFR MVFR MVFR IFR
WX -- -- -- -- -- -- -- -- -- -- -- -- -RA
WDir 90 90 90 90 90 90 90 90 120 120 120 120 140
WSpd 8 8 8 8 8 8 8 8 6 6 6 6 3
WGst -- -- -- -- -- -- -- -- -- -- -- -- --
WSHgt -- -- -- -- -- -- -- -- -- -- -- -- --
WSDir -- -- -- -- -- -- -- -- -- -- -- -- --
WSSpd -- -- -- -- -- -- -- -- -- -- -- -- --
Raw TAF
KPIT 100855Z 1009/1112 09008KT P6SM OVC025
  TEMPO 1018/1022 BKN015
  FM110600 12006KT P6SM OVC015
  FM111000 14003KT 6SM -RA OVC008


METAR Board
Radar Display
Forecast Discussion
For situational awareness. Not to be used for flight planning purposes.